createdAt,value
2022-12-22T00:00:15.250Z,2.27
2022-12-22T00:00:33.874Z,2.27
2022-12-22T00:01:04.918Z,2.27
2022-12-22T00:01:35.945Z,2.27
2022-12-22T00:02:08.075Z,2.27
2022-12-22T00:02:38.079Z,2.27
2022-12-22T00:03:09.116Z,2.27
2022-12-22T00:03:40.063Z,2.38
2022-12-22T00:04:11.014Z,2.38
2022-12-22T00:04:41.900Z,2.38
2022-12-22T00:05:12.904Z,2.38
2022-12-22T00:05:43.965Z,2.38
2022-12-22T00:06:14.903Z,2.38
2022-12-22T00:06:45.894Z,2.38
2022-12-22T00:07:17.910Z,2.38
2022-12-22T00:07:47.887Z,2.38
2022-12-22T00:08:18.889Z,2.38
2022-12-22T00:08:49.957Z,2.38
2022-12-22T00:09:20.893Z,2.38
2022-12-22T00:09:51.889Z,2.38
2022-12-22T00:10:22.921Z,2.38
2022-12-22T00:10:53.883Z,2.38
2022-12-22T00:11:24.909Z,2.38
2022-12-22T00:11:55.946Z,2.38
2022-12-22T00:12:27.891Z,2.38
2022-12-22T00:12:57.877Z,2.38
2022-12-22T00:13:28.909Z,2.38
2022-12-22T00:13:59.893Z,2.38
2022-12-22T00:14:30.939Z,2.38
2022-12-22T00:15:14.425Z,2.38
2022-12-22T00:15:32.929Z,2.27
2022-12-22T00:16:03.918Z,2.27
2022-12-22T00:16:35.003Z,2.27
2022-12-22T00:17:06.008Z,2.27
2022-12-22T00:17:37.888Z,2.27
2022-12-22T00:18:07.961Z,2.27
2022-12-22T00:18:38.892Z,2.27
2022-12-22T00:19:09.956Z,2.27
2022-12-22T00:19:40.958Z,2.27
2022-12-22T00:20:18.093Z,2.38
2022-12-22T00:20:43.018Z,2.50
2022-12-22T00:21:13.890Z,2.50
2022-12-22T00:21:44.894Z,2.50
2022-12-22T00:22:15.890Z,2.61
2022-12-22T00:22:47.932Z,2.61
2022-12-22T00:23:17.925Z,2.61
2022-12-22T00:23:48.901Z,2.72
2022-12-22T00:24:19.915Z,2.72
2022-12-22T00:24:50.889Z,2.72
2022-12-22T00:25:21.874Z,2.72
2022-12-22T00:25:52.931Z,2.72
2022-12-22T00:26:23.880Z,2.72
2022-12-22T00:26:54.980Z,2.72
2022-12-22T00:27:25.870Z,2.72
2022-12-22T00:27:57.917Z,2.72
2022-12-22T00:28:27.893Z,2.72
2022-12-22T00:28:58.885Z,2.72
2022-12-22T00:29:29.901Z,2.72
2022-12-22T00:30:13.364Z,2.72
2022-12-22T00:30:31.980Z,2.72
2022-12-22T00:31:02.973Z,2.72
2022-12-22T00:31:33.886Z,2.72
2022-12-22T00:32:04.891Z,2.72
2022-12-22T00:32:35.892Z,2.72
2022-12-22T00:33:07.916Z,2.61
2022-12-22T00:33:37.926Z,2.61
2022-12-22T00:34:08.906Z,2.61
2022-12-22T00:34:39.917Z,2.61
2022-12-22T00:35:10.881Z,2.61
2022-12-22T00:35:41.903Z,2.61
2022-12-22T00:36:12.898Z,2.61
2022-12-22T00:36:43.930Z,2.61
2022-12-22T00:37:14.891Z,2.61
2022-12-22T00:37:45.888Z,2.61
2022-12-22T00:38:17.877Z,2.61
2022-12-22T00:38:47.894Z,2.72
2022-12-22T00:39:18.875Z,2.72
2022-12-22T00:39:49.906Z,2.72
2022-12-22T00:40:20.944Z,2.72
2022-12-22T00:40:51.884Z,2.61
2022-12-22T00:41:22.893Z,2.61
2022-12-22T00:41:53.893Z,2.61
2022-12-22T00:42:24.930Z,2.61
2022-12-22T00:42:55.869Z,2.61
2022-12-22T00:43:27.899Z,2.61
2022-12-22T00:43:57.884Z,2.61
2022-12-22T00:44:28.888Z,2.61
2022-12-22T00:44:59.886Z,2.50
2022-12-22T00:45:43.247Z,2.50
2022-12-22T00:46:02.039Z,2.50
2022-12-22T00:46:32.963Z,2.50
2022-12-22T00:47:03.894Z,2.50
2022-12-22T00:47:34.883Z,2.50
2022-12-22T00:48:05.953Z,2.50
2022-12-22T00:48:37.873Z,2.50
2022-12-22T00:49:07.912Z,2.50
2022-12-22T00:49:38.893Z,2.50
2022-12-22T00:50:09.996Z,2.50
2022-12-22T00:50:40.886Z,2.50
2022-12-22T00:51:11.872Z,2.50
2022-12-22T00:51:42.876Z,2.50
2022-12-22T00:52:13.918Z,2.50
2022-12-22T00:52:44.910Z,2.50
2022-12-22T00:53:15.886Z,2.50
2022-12-22T00:53:47.912Z,2.50
2022-12-22T00:54:17.888Z,2.50
2022-12-22T00:54:48.888Z,2.50
2022-12-22T00:55:19.896Z,2.50
2022-12-22T00:55:50.920Z,2.50
2022-12-22T00:56:21.887Z,2.50
2022-12-22T00:56:52.921Z,2.50
2022-12-22T00:57:23.896Z,2.50
2022-12-22T00:57:54.896Z,2.50
2022-12-22T00:58:25.918Z,2.50
2022-12-22T00:58:57.871Z,2.50
2022-12-22T00:59:27.891Z,2.38
2022-12-22T00:59:58.902Z,2.38
2022-12-22T01:00:42.279Z,2.38
2022-12-22T01:01:01.165Z,2.38
2022-12-22T01:01:32.065Z,2.38
2022-12-22T01:02:03.150Z,2.38
2022-12-22T01:02:34.125Z,2.38
2022-12-22T01:03:04.994Z,2.38
2022-12-22T01:03:35.974Z,2.27
2022-12-22T01:04:07.965Z,2.27
2022-12-22T01:04:37.888Z,2.27
2022-12-22T01:05:08.884Z,2.27
2022-12-22T01:05:39.932Z,2.27
2022-12-22T01:06:10.896Z,2.27
2022-12-22T01:06:41.881Z,2.27
2022-12-22T01:07:12.903Z,2.27
2022-12-22T01:07:43.937Z,2.27
2022-12-22T01:08:14.868Z,2.22
2022-12-22T01:08:45.872Z,2.27
2022-12-22T01:09:17.866Z,2.22
2022-12-22T01:09:47.875Z,2.27
2022-12-22T01:10:18.899Z,2.27
2022-12-22T01:10:49.872Z,2.27
2022-12-22T01:11:20.906Z,2.38
2022-12-22T01:11:51.879Z,2.38
2022-12-22T01:12:22.940Z,2.38
2022-12-22T01:12:53.869Z,2.38
2022-12-22T01:13:24.901Z,2.50
2022-12-22T01:13:55.901Z,2.50
2022-12-22T01:14:27.919Z,2.50
2022-12-22T01:14:57.867Z,2.50
2022-12-22T01:15:41.297Z,2.38
2022-12-22T01:16:00.006Z,2.38
2022-12-22T01:16:30.928Z,2.27
2022-12-22T01:17:01.982Z,2.27
2022-12-22T01:17:32.904Z,2.27
2022-12-22T01:18:03.922Z,2.22
2022-12-22T01:18:34.877Z,2.22
2022-12-22T01:19:05.925Z,2.22
2022-12-22T01:19:37.925Z,2.22
2022-12-22T01:20:07.934Z,2.22
2022-12-22T01:20:38.874Z,2.11
2022-12-22T01:21:09.888Z,2.11
2022-12-22T01:21:40.874Z,2.11
2022-12-22T01:22:11.871Z,2.11
2022-12-22T01:22:42.925Z,2.11
2022-12-22T01:23:13.919Z,2.11
2022-12-22T01:23:44.867Z,2.22
2022-12-22T01:24:15.877Z,2.22
2022-12-22T01:24:47.879Z,2.22
2022-12-22T01:25:17.886Z,2.22
2022-12-22T01:25:48.872Z,2.22
2022-12-22T01:26:19.861Z,2.22
2022-12-22T01:26:50.897Z,2.11
2022-12-22T01:27:21.862Z,2.11
2022-12-22T01:27:52.876Z,2.11
2022-12-22T01:28:23.926Z,2.11
2022-12-22T01:28:54.880Z,2.11
2022-12-22T01:29:25.888Z,2.11
2022-12-22T01:29:57.860Z,2.11
2022-12-22T01:30:40.259Z,2.22
2022-12-22T01:30:58.942Z,2.22
2022-12-22T01:31:29.923Z,2.22
2022-12-22T01:32:01.033Z,2.22
2022-12-22T01:32:31.895Z,2.22
2022-12-22T01:33:02.975Z,2.22
2022-12-22T01:33:33.876Z,2.22
2022-12-22T01:34:04.871Z,2.22
2022-12-22T01:34:35.928Z,2.22
2022-12-22T01:35:07.881Z,2.22
2022-12-22T01:35:37.893Z,2.22
2022-12-22T01:36:08.916Z,2.22
2022-12-22T01:36:39.881Z,2.22
2022-12-22T01:37:10.933Z,2.27
2022-12-22T01:37:41.879Z,2.27
2022-12-22T01:38:12.851Z,2.27
2022-12-22T01:38:43.890Z,2.27
2022-12-22T01:39:14.896Z,2.27
2022-12-22T01:39:45.864Z,2.27
2022-12-22T01:40:17.931Z,2.38
2022-12-22T01:40:47.888Z,2.38
2022-12-22T01:41:18.861Z,2.38
2022-12-22T01:41:49.861Z,2.38
2022-12-22T01:42:20.952Z,2.38
2022-12-22T01:42:51.858Z,2.38
2022-12-22T01:43:22.857Z,2.38
2022-12-22T01:43:53.867Z,2.27
2022-12-22T01:44:24.900Z,2.27
2022-12-22T01:44:55.858Z,2.27
2022-12-22T01:45:40.178Z,2.27
2022-12-22T01:45:57.930Z,2.27
2022-12-22T01:46:28.915Z,2.27
2022-12-22T01:46:59.885Z,2.27
2022-12-22T01:47:30.875Z,2.27
2022-12-22T01:48:02.068Z,2.27
2022-12-22T01:48:32.877Z,2.27
2022-12-22T01:49:03.934Z,2.27
2022-12-22T01:49:34.874Z,2.27
2022-12-22T01:50:05.896Z,2.27
2022-12-22T01:50:37.868Z,2.27
2022-12-22T01:51:07.847Z,2.27
2022-12-22T01:51:38.871Z,2.22
2022-12-22T01:52:09.944Z,2.22
2022-12-22T01:52:40.890Z,2.22
2022-12-22T01:53:18.042Z,2.22
2022-12-22T01:53:42.880Z,2.22
2022-12-22T01:54:13.884Z,2.22
2022-12-22T01:54:44.915Z,2.22
2022-12-22T01:55:15.872Z,2.22
2022-12-22T01:55:47.890Z,2.22
2022-12-22T01:56:17.866Z,2.22
2022-12-22T01:56:48.857Z,2.22
2022-12-22T01:57:19.851Z,2.22
2022-12-22T01:57:50.935Z,2.22
2022-12-22T01:58:21.855Z,2.22
2022-12-22T01:58:52.858Z,2.22
2022-12-22T01:59:23.925Z,2.22
2022-12-22T01:59:54.939Z,2.22
2022-12-22T02:00:50.266Z,2.11
2022-12-22T02:00:58.147Z,2.11
2022-12-22T02:01:28.832Z,2.11
2022-12-22T02:01:59.244Z,2.11
2022-12-22T02:02:49.459Z,2.11
2022-12-22T02:03:02.544Z,2.11
2022-12-22T02:03:34.367Z,2.11
2022-12-22T02:04:11.607Z,2.11
2022-12-22T02:04:34.918Z,2.11
2022-12-22T02:05:04.927Z,2.11
2022-12-22T02:05:35.946Z,2.00
2022-12-22T02:06:08.006Z,2.00
2022-12-22T02:06:37.988Z,2.00
2022-12-22T02:07:09.041Z,2.00
2022-12-22T02:07:39.908Z,2.00
2022-12-22T02:08:11.023Z,2.00
2022-12-22T02:08:41.976Z,2.00
2022-12-22T02:09:12.867Z,2.00
2022-12-22T02:09:43.883Z,2.00
2022-12-22T02:10:14.949Z,2.00
2022-12-22T02:10:45.867Z,2.00
2022-12-22T02:11:17.928Z,2.00
2022-12-22T02:11:47.900Z,2.00
2022-12-22T02:12:18.898Z,2.00
2022-12-22T02:12:49.866Z,2.00
2022-12-22T02:13:20.977Z,2.00
2022-12-22T02:13:51.878Z,2.00
2022-12-22T02:14:29.460Z,2.00
2022-12-22T02:14:53.877Z,2.00
2022-12-22T02:15:37.338Z,2.00
2022-12-22T02:15:55.922Z,2.00
2022-12-22T02:16:27.972Z,2.00
2022-12-22T02:16:57.883Z,2.00
2022-12-22T02:17:28.883Z,2.00
2022-12-22T02:17:59.862Z,2.00
2022-12-22T02:18:30.928Z,2.00
2022-12-22T02:19:01.996Z,2.00
2022-12-22T02:19:32.891Z,2.00
2022-12-22T02:20:03.944Z,2.00
2022-12-22T02:20:35.074Z,2.00
2022-12-22T02:21:05.929Z,2.00
2022-12-22T02:21:37.922Z,2.00
2022-12-22T02:22:08.042Z,2.00
2022-12-22T02:22:38.952Z,2.00
2022-12-22T02:23:09.932Z,2.00
2022-12-22T02:23:40.895Z,1.88
2022-12-22T02:24:11.921Z,1.88
2022-12-22T02:24:42.871Z,1.88
2022-12-22T02:25:13.972Z,1.88
2022-12-22T02:25:44.889Z,1.88
2022-12-22T02:26:15.851Z,2.00
2022-12-22T02:26:47.902Z,2.00
2022-12-22T02:27:17.884Z,2.00
2022-12-22T02:27:48.861Z,2.00
2022-12-22T02:28:19.915Z,2.00
2022-12-22T02:28:50.896Z,2.00
2022-12-22T02:29:21.887Z,2.00
2022-12-22T02:29:52.861Z,2.00
2022-12-22T02:30:36.319Z,2.00
2022-12-22T02:30:54.913Z,2.00
2022-12-22T02:31:25.924Z,2.00
2022-12-22T02:31:57.881Z,2.00
2022-12-22T02:32:27.950Z,1.88
2022-12-22T02:33:02.304Z,1.88
2022-12-22T02:33:29.989Z,1.88
2022-12-22T02:34:01.092Z,1.88
2022-12-22T02:34:31.957Z,1.88
2022-12-22T02:35:02.992Z,1.88
2022-12-22T02:35:34.001Z,1.88
2022-12-22T02:36:05.029Z,1.88
2022-12-22T02:36:35.964Z,1.88
2022-12-22T02:37:07.985Z,1.88
2022-12-22T02:37:37.948Z,1.88
2022-12-22T02:38:08.981Z,1.88
2022-12-22T02:38:39.970Z,1.88
2022-12-22T02:39:10.961Z,1.88
2022-12-22T02:39:41.968Z,1.88
2022-12-22T02:40:12.958Z,1.88
2022-12-22T02:40:43.964Z,1.88
2022-12-22T02:41:14.955Z,1.88
2022-12-22T02:41:45.951Z,1.88
2022-12-22T02:42:17.980Z,1.88
2022-12-22T02:42:47.946Z,1.88
2022-12-22T02:43:18.921Z,2.00
2022-12-22T02:43:49.844Z,2.00
2022-12-22T02:44:20.934Z,2.00
2022-12-22T02:44:51.852Z,2.00
2022-12-22T02:45:35.149Z,2.00
2022-12-22T02:45:53.848Z,2.00
2022-12-22T02:46:24.875Z,2.11
2022-12-22T02:46:55.978Z,2.11
2022-12-22T02:47:27.870Z,2.11
2022-12-22T02:47:57.859Z,2.11
2022-12-22T02:48:28.902Z,2.11
2022-12-22T02:48:59.902Z,2.22
2022-12-22T02:49:30.918Z,2.22
2022-12-22T02:50:01.998Z,2.22
2022-12-22T02:50:32.888Z,2.22
2022-12-22T02:51:03.871Z,2.22
2022-12-22T02:51:34.842Z,2.22
2022-12-22T02:52:05.945Z,2.22
2022-12-22T02:52:37.847Z,2.22
2022-12-22T02:53:07.858Z,2.22
2022-12-22T02:53:38.859Z,2.22
2022-12-22T02:54:09.934Z,2.22
2022-12-22T02:54:41.112Z,2.22
2022-12-22T02:55:11.941Z,2.22
2022-12-22T02:55:42.932Z,2.22
2022-12-22T02:56:13.951Z,2.22
2022-12-22T02:56:44.952Z,2.22
2022-12-22T02:57:15.927Z,2.22
2022-12-22T02:57:47.965Z,2.11
2022-12-22T02:58:17.939Z,2.11
2022-12-22T02:58:48.924Z,2.11
2022-12-22T02:59:19.949Z,2.11
2022-12-22T02:59:50.972Z,2.11
2022-12-22T03:00:34.351Z,2.11
2022-12-22T03:00:52.926Z,2.22
2022-12-22T03:01:24.180Z,2.22
2022-12-22T03:01:55.209Z,2.22
2022-12-22T03:02:26.101Z,2.22
2022-12-22T03:02:58.176Z,2.22
2022-12-22T03:03:28.191Z,2.22
2022-12-22T03:03:58.989Z,2.22
2022-12-22T03:04:29.945Z,2.22
2022-12-22T03:05:01.062Z,2.22
2022-12-22T03:05:31.952Z,2.22
2022-12-22T03:06:02.968Z,2.22
2022-12-22T03:06:33.963Z,2.22
2022-12-22T03:07:05.109Z,2.22
2022-12-22T03:07:35.956Z,2.22
2022-12-22T03:08:08.816Z,2.22
2022-12-22T03:08:37.955Z,2.22
2022-12-22T03:09:08.961Z,2.22
2022-12-22T03:09:39.937Z,2.22
2022-12-22T03:10:16.019Z,2.22
2022-12-22T03:10:41.947Z,2.22
2022-12-22T03:11:12.937Z,2.22
2022-12-22T03:11:43.954Z,2.22
2022-12-22T03:12:14.924Z,2.22
2022-12-22T03:12:45.955Z,2.22
2022-12-22T03:13:17.826Z,2.22
2022-12-22T03:13:47.867Z,2.22
2022-12-22T03:14:18.856Z,2.22
2022-12-22T03:14:49.831Z,2.22
2022-12-22T03:15:33.212Z,2.22
2022-12-22T03:15:51.903Z,2.22
2022-12-22T03:16:22.921Z,2.22
2022-12-22T03:16:53.976Z,2.22
2022-12-22T03:17:24.967Z,2.22
2022-12-22T03:17:55.949Z,2.22
2022-12-22T03:18:27.946Z,2.22
2022-12-22T03:18:57.948Z,2.22
2022-12-22T03:19:28.958Z,2.22
2022-12-22T03:19:59.952Z,2.22
2022-12-22T03:20:30.987Z,2.22
2022-12-22T03:21:02.060Z,2.22
2022-12-22T03:21:32.954Z,2.22
2022-12-22T03:22:03.960Z,2.22
2022-12-22T03:22:34.948Z,2.27
2022-12-22T03:23:05.970Z,2.27
2022-12-22T03:23:37.926Z,2.27
2022-12-22T03:24:07.932Z,2.27
2022-12-22T03:24:38.953Z,2.27
2022-12-22T03:25:09.969Z,2.27
2022-12-22T03:25:40.950Z,2.27
2022-12-22T03:26:11.965Z,2.27
2022-12-22T03:26:42.950Z,2.27
2022-12-22T03:27:13.832Z,2.27
2022-12-22T03:27:44.895Z,2.27
2022-12-22T03:28:15.828Z,2.27
2022-12-22T03:28:48.933Z,2.27
2022-12-22T03:29:17.865Z,2.27
2022-12-22T03:29:48.923Z,2.27
2022-12-22T03:30:32.414Z,2.27
2022-12-22T03:30:50.835Z,2.27
2022-12-22T03:31:21.865Z,2.27
2022-12-22T03:31:52.899Z,2.27
2022-12-22T03:32:23.888Z,2.27
2022-12-22T03:32:54.833Z,2.27
2022-12-22T03:33:25.842Z,2.27
2022-12-22T03:33:57.833Z,2.38
2022-12-22T03:34:27.848Z,2.38
2022-12-22T03:34:58.834Z,2.38
2022-12-22T03:35:29.930Z,2.38
2022-12-22T03:36:01.051Z,2.38
2022-12-22T03:36:31.833Z,2.38
2022-12-22T03:37:02.875Z,2.38
2022-12-22T03:37:33.942Z,2.38
2022-12-22T03:38:04.830Z,2.38
2022-12-22T03:38:35.825Z,2.38
2022-12-22T03:39:07.866Z,2.50
2022-12-22T03:39:37.878Z,2.50
2022-12-22T03:40:08.914Z,2.50
2022-12-22T03:40:39.847Z,2.50
2022-12-22T03:41:10.848Z,2.50
2022-12-22T03:41:41.837Z,2.50
2022-12-22T03:42:12.859Z,2.50
2022-12-22T03:42:43.849Z,2.50
2022-12-22T03:43:14.820Z,2.50
2022-12-22T03:43:45.878Z,2.50
2022-12-22T03:44:17.832Z,2.50
2022-12-22T03:44:47.839Z,2.50
2022-12-22T03:45:31.175Z,2.50
2022-12-22T03:45:49.861Z,2.50
2022-12-22T03:46:20.836Z,2.50
2022-12-22T03:46:51.923Z,2.50
2022-12-22T03:47:22.855Z,2.50
2022-12-22T03:47:53.877Z,2.50
2022-12-22T03:48:24.836Z,2.50
2022-12-22T03:48:55.856Z,2.50
2022-12-22T03:49:27.843Z,2.50
2022-12-22T03:49:57.845Z,2.50
2022-12-22T03:50:28.864Z,2.50
2022-12-22T03:50:59.829Z,2.50
2022-12-22T03:51:30.865Z,2.50
2022-12-22T03:52:01.983Z,2.50
2022-12-22T03:52:32.876Z,2.50
2022-12-22T03:53:03.841Z,2.50
2022-12-22T03:53:35.001Z,2.50
2022-12-22T03:54:05.837Z,2.50
2022-12-22T03:54:37.836Z,2.50
2022-12-22T03:55:07.900Z,2.50
2022-12-22T03:55:38.837Z,2.50
2022-12-22T03:56:09.834Z,2.50
2022-12-22T03:56:40.810Z,2.50
2022-12-22T03:57:11.904Z,2.50
2022-12-22T03:57:42.836Z,2.50
2022-12-22T03:58:13.862Z,2.50
2022-12-22T03:58:44.832Z,2.50
2022-12-22T03:59:15.872Z,2.61
2022-12-22T03:59:47.885Z,2.61
2022-12-22T04:00:30.221Z,2.61
2022-12-22T04:00:48.901Z,2.61
2022-12-22T04:01:19.960Z,2.61
2022-12-22T04:01:51.164Z,2.61
2022-12-22T04:02:21.960Z,2.61
2022-12-22T04:02:52.964Z,2.61
2022-12-22T04:03:23.868Z,2.72
2022-12-22T04:03:54.865Z,2.77
2022-12-22T04:04:25.854Z,2.77
2022-12-22T04:04:57.903Z,2.77
2022-12-22T04:05:27.935Z,2.77
2022-12-22T04:05:58.931Z,2.77
2022-12-22T04:06:29.944Z,2.77
2022-12-22T04:07:01.072Z,2.77
2022-12-22T04:07:31.942Z,2.88
2022-12-22T04:08:02.941Z,2.88
2022-12-22T04:08:33.967Z,2.88
2022-12-22T04:09:04.933Z,2.88
2022-12-22T04:09:35.924Z,2.88
2022-12-22T04:10:07.988Z,2.88
2022-12-22T04:10:37.950Z,3.00
2022-12-22T04:11:08.969Z,3.11
2022-12-22T04:11:39.964Z,3.11
2022-12-22T04:12:10.935Z,3.11
2022-12-22T04:12:41.925Z,3.11
2022-12-22T04:13:12.921Z,3.11
2022-12-22T04:13:43.984Z,3.11
2022-12-22T04:14:14.949Z,3.11
2022-12-22T04:14:45.919Z,3.11
2022-12-22T04:15:30.294Z,3.11
2022-12-22T04:15:47.934Z,3.11
2022-12-22T04:16:18.945Z,3.11
2022-12-22T04:16:50.043Z,3.22
2022-12-22T04:17:20.940Z,3.22
2022-12-22T04:17:51.930Z,3.22
2022-12-22T04:18:22.935Z,3.22
2022-12-22T04:18:53.919Z,3.22
2022-12-22T04:19:24.926Z,3.22
2022-12-22T04:19:55.942Z,3.22
2022-12-22T04:20:27.980Z,3.22
2022-12-22T04:20:57.957Z,3.22
2022-12-22T04:21:28.940Z,3.22
2022-12-22T04:21:59.949Z,3.22
2022-12-22T04:22:31.005Z,3.22
2022-12-22T04:23:02.085Z,3.22
2022-12-22T04:23:32.914Z,3.22
2022-12-22T04:24:03.931Z,3.22
2022-12-22T04:24:34.962Z,3.22
2022-12-22T04:25:05.971Z,3.22
2022-12-22T04:25:37.936Z,3.22
2022-12-22T04:26:07.983Z,3.22
2022-12-22T04:26:38.915Z,3.22
2022-12-22T04:27:09.835Z,3.22
2022-12-22T04:27:40.818Z,3.22
2022-12-22T04:28:11.843Z,3.22
2022-12-22T04:28:42.868Z,3.22
2022-12-22T04:29:13.880Z,3.22
2022-12-22T04:29:44.809Z,3.22
2022-12-22T04:30:28.402Z,3.22
2022-12-22T04:30:47.863Z,3.22
2022-12-22T04:31:17.907Z,3.22
2022-12-22T04:31:48.929Z,3.22
2022-12-22T04:32:20.051Z,3.22
2022-12-22T04:32:50.880Z,3.22
2022-12-22T04:33:21.836Z,3.22
2022-12-22T04:33:52.826Z,3.22
2022-12-22T04:34:23.874Z,3.22
2022-12-22T04:34:54.820Z,3.22
2022-12-22T04:35:25.821Z,3.22
2022-12-22T04:35:57.849Z,3.22
2022-12-22T04:36:27.828Z,3.22
2022-12-22T04:37:07.036Z,3.22
2022-12-22T04:37:29.865Z,3.22
2022-12-22T04:38:01.035Z,3.11
2022-12-22T04:38:31.879Z,3.11
2022-12-22T04:39:02.839Z,3.11
2022-12-22T04:39:33.898Z,3.22
2022-12-22T04:40:05.174Z,3.22
2022-12-22T04:40:35.825Z,3.22
2022-12-22T04:41:07.827Z,3.22
2022-12-22T04:41:37.822Z,3.22
2022-12-22T04:42:08.914Z,3.22
2022-12-22T04:42:39.822Z,3.22
2022-12-22T04:43:10.823Z,3.22
2022-12-22T04:43:41.877Z,3.22
2022-12-22T04:44:12.830Z,3.22
2022-12-22T04:44:43.829Z,3.22
2022-12-22T04:45:27.224Z,3.22
2022-12-22T04:45:45.856Z,3.22
2022-12-22T04:46:17.862Z,3.22
2022-12-22T04:46:47.798Z,3.22
2022-12-22T04:47:18.879Z,3.22
2022-12-22T04:47:49.856Z,3.22
2022-12-22T04:48:20.804Z,3.22
2022-12-22T04:48:56.166Z,3.22
2022-12-22T04:49:22.837Z,3.22
2022-12-22T04:49:53.817Z,3.22
2022-12-22T04:50:24.821Z,3.22
2022-12-22T04:50:55.851Z,3.22
2022-12-22T04:51:27.819Z,3.22
2022-12-22T04:51:57.875Z,3.22
2022-12-22T04:52:28.872Z,3.22
2022-12-22T04:52:59.825Z,3.22
2022-12-22T04:53:30.839Z,3.22
2022-12-22T04:54:02.008Z,3.22
2022-12-22T04:54:32.840Z,3.22
2022-12-22T04:55:03.889Z,3.22
2022-12-22T04:55:34.795Z,3.11
2022-12-22T04:56:05.861Z,3.11
2022-12-22T04:56:37.824Z,3.11
2022-12-22T04:57:07.840Z,3.11
2022-12-22T04:57:41.010Z,3.11
2022-12-22T04:58:09.815Z,3.22
2022-12-22T04:58:40.819Z,3.22
2022-12-22T04:59:11.969Z,3.22
2022-12-22T04:59:42.877Z,3.22
2022-12-22T05:00:26.237Z,3.22
2022-12-22T05:00:44.800Z,3.22
2022-12-22T05:01:15.896Z,3.22
2022-12-22T05:01:47.907Z,3.22
2022-12-22T05:02:17.924Z,3.22
2022-12-22T05:02:48.981Z,3.22
2022-12-22T05:03:20.088Z,3.22
2022-12-22T05:03:50.983Z,3.22
2022-12-22T05:04:23.832Z,3.22
2022-12-22T05:04:52.852Z,3.22
2022-12-22T05:05:23.859Z,3.22
2022-12-22T05:05:54.811Z,3.22
2022-12-22T05:06:25.812Z,3.22
2022-12-22T05:06:57.905Z,3.22
2022-12-22T05:07:27.863Z,3.22
2022-12-22T05:07:58.836Z,3.22
2022-12-22T05:08:29.804Z,3.22
2022-12-22T05:09:01.026Z,3.22
2022-12-22T05:09:31.854Z,3.22
2022-12-22T05:10:02.875Z,3.22
2022-12-22T05:10:33.871Z,3.22
2022-12-22T05:11:04.844Z,3.22
2022-12-22T05:11:35.869Z,3.22
2022-12-22T05:12:07.803Z,3.22
2022-12-22T05:12:37.818Z,3.22
2022-12-22T05:13:08.831Z,3.22
2022-12-22T05:13:39.809Z,3.22
2022-12-22T05:14:10.797Z,3.22
2022-12-22T05:14:41.872Z,3.22
2022-12-22T05:15:25.197Z,3.22
2022-12-22T05:15:43.860Z,3.22
2022-12-22T05:16:14.898Z,3.11
2022-12-22T05:16:45.896Z,3.11
2022-12-22T05:17:17.803Z,3.11
2022-12-22T05:17:47.805Z,3.11
2022-12-22T05:18:18.863Z,3.11
2022-12-22T05:18:49.802Z,3.11
2022-12-22T05:19:22.344Z,3.11
2022-12-22T05:19:51.832Z,3.11
2022-12-22T05:20:22.887Z,3.11
2022-12-22T05:20:53.843Z,3.11
2022-12-22T05:21:25.820Z,3.11
2022-12-22T05:21:55.823Z,3.11
2022-12-22T05:22:27.862Z,3.11
2022-12-22T05:22:57.824Z,3.11
2022-12-22T05:23:28.894Z,3.22
2022-12-22T05:23:59.830Z,3.22
2022-12-22T05:24:30.796Z,3.22
2022-12-22T05:25:02.046Z,3.22
2022-12-22T05:25:35.328Z,3.22
2022-12-22T05:26:03.844Z,3.11
2022-12-22T05:26:34.806Z,3.11
2022-12-22T05:27:05.800Z,3.11
2022-12-22T05:27:37.801Z,3.11
2022-12-22T05:28:07.840Z,3.11
2022-12-22T05:28:38.871Z,3.11
2022-12-22T05:29:09.830Z,3.11
2022-12-22T05:29:40.834Z,3.11
2022-12-22T05:30:25.263Z,3.11
2022-12-22T05:30:42.883Z,3.11
2022-12-22T05:31:13.869Z,3.11
2022-12-22T05:31:47.357Z,3.11
2022-12-22T05:32:15.814Z,3.11
2022-12-22T05:32:47.787Z,3.11
2022-12-22T05:33:17.803Z,3.11
2022-12-22T05:33:48.870Z,3.11
2022-12-22T05:34:19.798Z,3.11
2022-12-22T05:34:50.861Z,3.00
2022-12-22T05:35:21.805Z,3.00
2022-12-22T05:35:52.805Z,3.00
2022-12-22T05:36:23.836Z,3.00
2022-12-22T05:36:54.886Z,2.88
2022-12-22T05:37:25.813Z,2.88
2022-12-22T05:37:57.818Z,2.88
2022-12-22T05:38:27.814Z,2.88
2022-12-22T05:38:58.877Z,2.88
2022-12-22T05:39:29.808Z,2.88
2022-12-22T05:40:00.970Z,2.88
2022-12-22T05:40:31.866Z,3.00
2022-12-22T05:41:04.639Z,3.00
2022-12-22T05:41:33.820Z,3.00
2022-12-22T05:42:04.864Z,3.00
2022-12-22T05:42:35.968Z,3.11
2022-12-22T05:43:07.854Z,3.11
2022-12-22T05:43:37.837Z,3.11
2022-12-22T05:44:08.891Z,3.22
2022-12-22T05:44:39.802Z,3.22
2022-12-22T05:45:23.178Z,3.22
2022-12-22T05:45:41.944Z,3.22
2022-12-22T05:46:12.958Z,3.22
2022-12-22T05:46:43.936Z,3.22
2022-12-22T05:47:14.808Z,3.27
2022-12-22T05:47:45.810Z,3.27
2022-12-22T05:48:21.161Z,3.27
2022-12-22T05:48:47.814Z,3.38
2022-12-22T05:49:19.044Z,3.50
2022-12-22T05:49:49.800Z,3.50
2022-12-22T05:50:20.864Z,3.50
2022-12-22T05:50:51.823Z,3.61
2022-12-22T05:51:22.807Z,3.61
2022-12-22T05:51:53.812Z,3.61
2022-12-22T05:52:24.802Z,3.61
2022-12-22T05:52:55.787Z,3.61
2022-12-22T05:53:27.809Z,3.72
2022-12-22T05:53:57.862Z,3.72
2022-12-22T05:54:28.824Z,3.77
2022-12-22T05:54:59.819Z,3.77
2022-12-22T05:55:30.812Z,3.77
2022-12-22T05:56:01.983Z,3.77
2022-12-22T05:56:32.821Z,3.77
2022-12-22T05:57:03.910Z,3.77
2022-12-22T05:57:34.850Z,3.77
2022-12-22T05:58:05.836Z,3.77
2022-12-22T05:58:37.786Z,3.77
2022-12-22T05:59:07.889Z,3.88
2022-12-22T05:59:38.808Z,3.88
2022-12-22T06:00:22.324Z,3.88
2022-12-22T06:00:40.834Z,3.88
2022-12-22T06:01:11.801Z,3.88
2022-12-22T06:01:42.932Z,3.88
2022-12-22T06:02:13.994Z,3.88
2022-12-22T06:02:44.985Z,4.00
2022-12-22T06:03:15.912Z,4.00
2022-12-22T06:03:47.855Z,4.00
2022-12-22T06:04:17.947Z,4.00
2022-12-22T06:04:48.811Z,4.00
2022-12-22T06:05:19.783Z,4.00
2022-12-22T06:05:50.809Z,3.88
2022-12-22T06:06:21.795Z,3.88
2022-12-22T06:06:52.816Z,3.88
2022-12-22T06:07:23.817Z,3.77
2022-12-22T06:07:54.849Z,3.77
2022-12-22T06:08:25.810Z,3.77
2022-12-22T06:08:57.804Z,3.77
2022-12-22T06:09:27.807Z,3.72
2022-12-22T06:09:58.823Z,3.72
2022-12-22T06:10:29.876Z,3.72
2022-12-22T06:11:00.962Z,3.61
2022-12-22T06:11:31.806Z,3.61
2022-12-22T06:12:02.869Z,3.61
2022-12-22T06:12:33.847Z,3.61
2022-12-22T06:13:04.860Z,3.61
2022-12-22T06:13:35.859Z,3.61
2022-12-22T06:14:07.814Z,3.61
2022-12-22T06:14:37.800Z,3.72
2022-12-22T06:15:21.158Z,3.72
2022-12-22T06:15:39.848Z,3.72
2022-12-22T06:16:10.867Z,3.72
2022-12-22T06:16:41.844Z,3.72
2022-12-22T06:17:12.817Z,3.77
2022-12-22T06:17:45.344Z,3.77
2022-12-22T06:18:14.896Z,3.77
2022-12-22T06:18:45.888Z,3.77
2022-12-22T06:19:17.892Z,3.77
2022-12-22T06:19:47.898Z,3.77
2022-12-22T06:20:18.925Z,3.88
2022-12-22T06:20:49.923Z,3.88
2022-12-22T06:21:20.915Z,3.88
2022-12-22T06:21:51.893Z,3.88
2022-12-22T06:22:22.911Z,3.88
2022-12-22T06:22:53.908Z,4.00
2022-12-22T06:23:24.874Z,4.00
2022-12-22T06:23:55.903Z,4.11
2022-12-22T06:24:27.908Z,4.11
2022-12-22T06:24:57.920Z,4.11
2022-12-22T06:25:28.928Z,4.11
2022-12-22T06:25:59.902Z,4.11
2022-12-22T06:26:30.875Z,4.11
2022-12-22T06:27:02.025Z,4.11
2022-12-22T06:27:32.907Z,4.11
2022-12-22T06:28:03.903Z,4.11
2022-12-22T06:28:34.801Z,4.22
2022-12-22T06:29:05.854Z,4.22
2022-12-22T06:29:37.795Z,4.22
2022-12-22T06:30:20.183Z,4.22
2022-12-22T06:30:38.834Z,4.22
2022-12-22T06:31:09.878Z,4.22
2022-12-22T06:31:40.870Z,4.22
2022-12-22T06:32:11.804Z,4.22
2022-12-22T06:32:42.817Z,4.22
2022-12-22T06:33:13.887Z,4.22
2022-12-22T06:33:44.800Z,4.22
2022-12-22T06:34:15.846Z,4.22
2022-12-22T06:34:47.797Z,4.22
2022-12-22T06:35:17.825Z,4.11
2022-12-22T06:35:55.650Z,4.11
2022-12-22T06:36:19.803Z,4.11
2022-12-22T06:36:50.805Z,4.11
2022-12-22T06:37:21.842Z,4.11
2022-12-22T06:37:52.882Z,4.11
2022-12-22T06:38:23.804Z,4.11
2022-12-22T06:38:54.811Z,4.11
2022-12-22T06:39:25.817Z,4.11
2022-12-22T06:39:57.797Z,4.11
2022-12-22T06:40:27.805Z,4.11
2022-12-22T06:40:58.822Z,4.11
2022-12-22T06:41:29.787Z,4.11
2022-12-22T06:42:00.987Z,4.11
2022-12-22T06:42:31.803Z,4.11
2022-12-22T06:43:08.476Z,4.11
2022-12-22T06:43:33.834Z,4.11
2022-12-22T06:44:04.811Z,4.11
2022-12-22T06:44:35.800Z,4.11
2022-12-22T06:45:21.152Z,4.11
2022-12-22T06:45:37.786Z,4.11
2022-12-22T06:46:08.889Z,4.11
2022-12-22T06:46:39.895Z,4.11
2022-12-22T06:47:10.800Z,4.11
2022-12-22T06:47:41.791Z,4.11
2022-12-22T06:48:12.854Z,4.11
2022-12-22T06:48:43.858Z,4.11
2022-12-22T06:49:14.837Z,4.11
2022-12-22T06:49:45.801Z,4.11
2022-12-22T06:50:17.878Z,4.11
2022-12-22T06:50:47.796Z,4.11
2022-12-22T06:51:18.856Z,4.11
2022-12-22T06:51:49.808Z,4.11
2022-12-22T06:52:20.798Z,4.11